Main page
METAR-TAF:

METAR-TAF

Airports :

Heydar Aliyev International Airport

Baku, Azerbaijan

latitude: 40-27N, longitude: 050-04E, elevation: -6 m

Current weather observation

The report was made 23 minutes ago, at 04:30 UTC
Wind 16 kt from the North/Northwest
Temperature 30°C
Humidity 52%
Pressure 1011 hPa
Visibility 10 km or more
no clouds below 1500 m and no cumulonimbus

METAR: UBBB 250430Z 34016KT CAVOK 30/19 Q1011 R88/D NOSIG

Time: 08:53 (04:53 UTC)

Forecast

The report was made 5 hours and 43 minutes ago, at 23:10 UTC
Forecast valid from 25 at 00 UTC to 25 at 24 UTC
Wind 10 kt from the North/Northwest
Visibility 10 km or more
no clouds below 1500 m and no cumulonimbus
Temporary
from 25 at 08 UTC to 25 at 18 UTC
Wind 16 kt from the North

TAF: UBBB 242310Z 2500/2524 33010KT CAVOK TX37/2510Z TN23/2502Z TEMPO 2508/2518 36016KT

Weather observations and forecasts of more than 4000 airports (METAR and TAF reports).

The available stations are represented by yellow and red dots on the map.

Hover mouse over dot to see the name of the station.

Then click to see weather observations and forecasts.

To change the map : click on the green buttons with a black cross to zoom in, on the green button with a dash to zoom out, or on the green arrows for adjacent maps.


METAR-TAF: